sensor_id;sensor_type;location;lat;lon;timestamp;temperature;humidity
23568;DHT22;11962;50.838;4.430;2023-06-22T00:00:52;23.50;97.40
23568;DHT22;11962;50.838;4.430;2023-06-22T00:03:19;23.50;97.50
23568;DHT22;11962;50.838;4.430;2023-06-22T00:05:46;23.40;97.60
23568;DHT22;11962;50.838;4.430;2023-06-22T00:08:12;23.50;97.70
23568;DHT22;11962;50.838;4.430;2023-06-22T00:10:38;23.40;97.70
23568;DHT22;11962;50.838;4.430;2023-06-22T00:13:06;23.40;97.80
23568;DHT22;11962;50.838;4.430;2023-06-22T00:15:32;23.30;97.80
23568;DHT22;11962;50.838;4.430;2023-06-22T00:17:58;23.30;97.80
23568;DHT22;11962;50.838;4.430;2023-06-22T00:20:25;23.30;97.80
23568;DHT22;11962;50.838;4.430;2023-06-22T00:22:54;23.30;97.90
23568;DHT22;11962;50.838;4.430;2023-06-22T00:25:21;23.30;97.90
23568;DHT22;11962;50.838;4.430;2023-06-22T00:27:47;23.30;98.00
23568;DHT22;11962;50.838;4.430;2023-06-22T00:30:13;23.30;98.10
23568;DHT22;11962;50.838;4.430;2023-06-22T00:32:39;23.20;97.90
23568;DHT22;11962;50.838;4.430;2023-06-22T00:35:05;23.20;97.90
23568;DHT22;11962;50.838;4.430;2023-06-22T00:37:31;23.20;98.00
23568;DHT22;11962;50.838;4.430;2023-06-22T00:39:57;23.20;97.90
23568;DHT22;11962;50.838;4.430;2023-06-22T00:42:23;23.20;97.90
23568;DHT22;11962;50.838;4.430;2023-06-22T00:44:48;23.20;98.00
23568;DHT22;11962;50.838;4.430;2023-06-22T00:47:15;23.20;98.00
23568;DHT22;11962;50.838;4.430;2023-06-22T00:49:43;23.30;98.40
23568;DHT22;11962;50.838;4.430;2023-06-22T00:52:09;23.30;98.20
23568;DHT22;11962;50.838;4.430;2023-06-22T00:54:42;23.30;98.20
23568;DHT22;11962;50.838;4.430;2023-06-22T00:57:13;23.30;98.10
23568;DHT22;11962;50.838;4.430;2023-06-22T00:59:45;23.30;98.20
23568;DHT22;11962;50.838;4.430;2023-06-22T01:02:11;23.30;98.20
23568;DHT22;11962;50.838;4.430;2023-06-22T01:04:38;23.30;98.20
23568;DHT22;11962;50.838;4.430;2023-06-22T01:07:13;23.30;98.20
23568;DHT22;11962;50.838;4.430;2023-06-22T01:10:06;23.30;98.70
23568;DHT22;11962;50.838;4.430;2023-06-22T01:12:36;23.30;98.30
23568;DHT22;11962;50.838;4.430;2023-06-22T01:15:31;23.30;98.30
23568;DHT22;11962;50.838;4.430;2023-06-22T01:17:59;23.30;98.20
23568;DHT22;11962;50.838;4.430;2023-06-22T01:20:28;23.20;98.40
23568;DHT22;11962;50.838;4.430;2023-06-22T01:23:23;23.20;98.40
23568;DHT22;11962;50.838;4.430;2023-06-22T01:26:06;23.20;98.50
23568;DHT22;11962;50.838;4.430;2023-06-22T01:28:46;23.10;98.50
23568;DHT22;11962;50.838;4.430;2023-06-22T01:31:16;23.00;98.60
23568;DHT22;11962;50.838;4.430;2023-06-22T01:33:45;23.00;98.70
23568;DHT22;11962;50.838;4.430;2023-06-22T01:36:13;23.00;98.80
23568;DHT22;11962;50.838;4.430;2023-06-22T01:38:40;22.90;99.00
23568;DHT22;11962;50.838;4.430;2023-06-22T01:41:06;22.90;99.20
23568;DHT22;11962;50.838;4.430;2023-06-22T01:43:32;22.90;99.40
23568;DHT22;11962;50.838;4.430;2023-06-22T01:46:01;22.80;99.70
23568;DHT22;11962;50.838;4.430;2023-06-22T01:48:27;22.80;99.80
23568;DHT22;11962;50.838;4.430;2023-06-22T01:50:53;22.70;99.90
23568;DHT22;11962;50.838;4.430;2023-06-22T01:53:22;22.60;99.90
23568;DHT22;11962;50.838;4.430;2023-06-22T01:55:48;22.60;99.90
23568;DHT22;11962;50.838;4.430;2023-06-22T01:58:14;22.60;99.90
23568;DHT22;11962;50.838;4.430;2023-06-22T02:00:58;22.50;99.90
23568;DHT22;11962;50.838;4.430;2023-06-22T02:03:31;22.40;99.90
23568;DHT22;11962;50.838;4.430;2023-06-22T02:06:08;22.40;99.90
23568;DHT22;11962;50.838;4.430;2023-06-22T02:08:41;22.30;99.90
23568;DHT22;11962;50.838;4.430;2023-06-22T02:11:11;22.30;99.90
23568;DHT22;11962;50.838;4.430;2023-06-22T02:13:38;22.30;99.90
23568;DHT22;11962;50.838;4.430;2023-06-22T02:16:10;22.20;99.90
23568;DHT22;11962;50.838;4.430;2023-06-22T02:18:36;22.20;99.90
23568;DHT22;11962;50.838;4.430;2023-06-22T02:21:02;22.20;99.90
23568;DHT22;11962;50.838;4.430;2023-06-22T02:23:28;22.10;99.90
23568;DHT22;11962;50.838;4.430;2023-06-22T02:25:54;22.10;99.90
23568;DHT22;11962;50.838;4.430;2023-06-22T02:28:20;22.10;99.90
23568;DHT22;11962;50.838;4.430;2023-06-22T02:30:46;22.00;99.90
23568;DHT22;11962;50.838;4.430;2023-06-22T02:33:11;22.00;99.90
23568;DHT22;11962;50.838;4.430;2023-06-22T02:35:37;22.00;99.90
23568;DHT22;11962;50.838;4.430;2023-06-22T02:38:04;21.90;99.90
23568;DHT22;11962;50.838;4.430;2023-06-22T02:40:30;21.90;99.90
23568;DHT22;11962;50.838;4.430;2023-06-22T02:42:57;21.80;99.90
23568;DHT22;11962;50.838;4.430;2023-06-22T02:45:27;21.80;99.90
23568;DHT22;11962;50.838;4.430;2023-06-22T02:47:52;21.80;99.90
23568;DHT22;11962;50.838;4.430;2023-06-22T02:50:18;21.80;99.90
23568;DHT22;11962;50.838;4.430;2023-06-22T02:52:44;21.70;99.90
23568;DHT22;11962;50.838;4.430;2023-06-22T02:55:09;21.70;99.90
23568;DHT22;11962;50.838;4.430;2023-06-22T02:57:35;21.70;99.90
23568;DHT22;11962;50.838;4.430;2023-06-22T03:00:03;21.60;99.90
23568;DHT22;11962;50.838;4.430;2023-06-22T03:02:40;21.60;99.90
23568;DHT22;11962;50.838;4.430;2023-06-22T03:05:06;21.60;99.90
23568;DHT22;11962;50.838;4.430;2023-06-22T03:07:32;21.50;99.90
23568;DHT22;11962;50.838;4.430;2023-06-22T03:09:57;21.50;99.90
23568;DHT22;11962;50.838;4.430;2023-06-22T03:12:23;21.50;99.90
23568;DHT22;11962;50.838;4.430;2023-06-22T03:14:49;21.50;99.90
23568;DHT22;11962;50.838;4.430;2023-06-22T03:17:15;21.40;99.90
23568;DHT22;11962;50.838;4.430;2023-06-22T03:19:40;21.40;99.90
23568;DHT22;11962;50.838;4.430;2023-06-22T03:22:06;21.40;99.90
23568;DHT22;11962;50.838;4.430;2023-06-22T03:24:33;21.30;99.90
23568;DHT22;11962;50.838;4.430;2023-06-22T03:27:00;21.40;99.90
23568;DHT22;11962;50.838;4.430;2023-06-22T03:29:25;21.40;99.90
23568;DHT22;11962;50.838;4.430;2023-06-22T03:31:51;21.40;99.90
23568;DHT22;11962;50.838;4.430;2023-06-22T03:34:17;21.40;99.90
23568;DHT22;11962;50.838;4.430;2023-06-22T03:36:42;21.30;99.90
23568;DHT22;11962;50.838;4.430;2023-06-22T03:39:10;21.40;99.90
23568;DHT22;11962;50.838;4.430;2023-06-22T03:41:36;21.40;99.90
23568;DHT22;11962;50.838;4.430;2023-06-22T03:44:02;21.40;99.90
23568;DHT22;11962;50.838;4.430;2023-06-22T03:46:27;21.40;99.90
23568;DHT22;11962;50.838;4.430;2023-06-22T03:48:53;21.50;99.90
23568;DHT22;11962;50.838;4.430;2023-06-22T03:51:19;21.50;99.90
23568;DHT22;11962;50.838;4.430;2023-06-22T03:53:44;21.50;99.90
23568;DHT22;11962;50.838;4.430;2023-06-22T03:56:10;21.60;99.90
23568;DHT22;11962;50.838;4.430;2023-06-22T03:58:36;21.60;99.90
23568;DHT22;11962;50.838;4.430;2023-06-22T04:01:02;21.70;99.90
23568;DHT22;11962;50.838;4.430;2023-06-22T04:03:28;21.70;99.90
23568;DHT22;11962;50.838;4.430;2023-06-22T04:05:53;21.80;99.90
23568;DHT22;11962;50.838;4.430;2023-06-22T04:08:19;21.80;99.90
23568;DHT22;11962;50.838;4.430;2023-06-22T04:10:45;21.80;99.90
23568;DHT22;11962;50.838;4.430;2023-06-22T04:13:10;21.80;99.90
23568;DHT22;11962;50.838;4.430;2023-06-22T04:15:36;21.80;99.90
23568;DHT22;11962;50.838;4.430;2023-06-22T04:18:02;21.80;99.90
23568;DHT22;11962;50.838;4.430;2023-06-22T04:20:28;21.80;99.90
23568;DHT22;11962;50.838;4.430;2023-06-22T04:22:54;21.90;99.90
23568;DHT22;11962;50.838;4.430;2023-06-22T04:25:20;21.80;99.90
23568;DHT22;11962;50.838;4.430;2023-06-22T04:27:46;21.90;99.90
23568;DHT22;11962;50.838;4.430;2023-06-22T04:30:12;21.90;99.90
23568;DHT22;11962;50.838;4.430;2023-06-22T04:32:40;22.00;99.90
23568;DHT22;11962;50.838;4.430;2023-06-22T04:35:06;22.00;99.90
23568;DHT22;11962;50.838;4.430;2023-06-22T04:37:33;22.00;99.90
23568;DHT22;11962;50.838;4.430;2023-06-22T04:39:59;22.00;99.90
23568;DHT22;11962;50.838;4.430;2023-06-22T04:42:26;22.00;99.90
23568;DHT22;11962;50.838;4.430;2023-06-22T04:44:52;22.00;99.90
23568;DHT22;11962;50.838;4.430;2023-06-22T04:47:18;22.00;99.90
23568;DHT22;11962;50.838;4.430;2023-06-22T04:49:44;22.00;99.90
23568;DHT22;11962;50.838;4.430;2023-06-22T04:52:12;22.00;99.90
23568;DHT22;11962;50.838;4.430;2023-06-22T04:54:39;22.10;99.90
23568;DHT22;11962;50.838;4.430;2023-06-22T04:57:13;22.10;99.90
23568;DHT22;11962;50.838;4.430;2023-06-22T04:59:39;22.00;99.90
23568;DHT22;11962;50.838;4.430;2023-06-22T05:02:07;22.00;99.90
23568;DHT22;11962;50.838;4.430;2023-06-22T05:04:33;22.00;99.90
23568;DHT22;11962;50.838;4.430;2023-06-22T05:07:02;22.00;99.90
23568;DHT22;11962;50.838;4.430;2023-06-22T05:09:28;22.00;99.90
23568;DHT22;11962;50.838;4.430;2023-06-22T05:11:54;22.10;99.90
23568;DHT22;11962;50.838;4.430;2023-06-22T05:14:20;22.10;99.90
23568;DHT22;11962;50.838;4.430;2023-06-22T05:16:46;22.00;99.90
23568;DHT22;11962;50.838;4.430;2023-06-22T05:19:12;22.10;99.90
23568;DHT22;11962;50.838;4.430;2023-06-22T05:21:38;22.10;99.90
23568;DHT22;11962;50.838;4.430;2023-06-22T05:24:04;22.10;99.90
23568;DHT22;11962;50.838;4.430;2023-06-22T05:26:31;22.10;99.90
23568;DHT22;11962;50.838;4.430;2023-06-22T05:28:58;22.10;99.90
23568;DHT22;11962;50.838;4.430;2023-06-22T05:31:24;22.00;99.90
23568;DHT22;11962;50.838;4.430;2023-06-22T05:33:52;22.00;99.90
23568;DHT22;11962;50.838;4.430;2023-06-22T05:36:18;21.90;99.90
23568;DHT22;11962;50.838;4.430;2023-06-22T05:38:51;21.90;99.90
23568;DHT22;11962;50.838;4.430;2023-06-22T05:41:17;21.90;99.90
23568;DHT22;11962;50.838;4.430;2023-06-22T05:43:42;21.80;99.90
23568;DHT22;11962;50.838;4.430;2023-06-22T05:46:08;21.80;99.90
23568;DHT22;11962;50.838;4.430;2023-06-22T05:48:34;21.70;99.90
23568;DHT22;11962;50.838;4.430;2023-06-22T05:51:00;21.70;99.90
23568;DHT22;11962;50.838;4.430;2023-06-22T05:53:26;21.70;99.90
23568;DHT22;11962;50.838;4.430;2023-06-22T05:55:51;21.70;99.90
23568;DHT22;11962;50.838;4.430;2023-06-22T05:58:17;21.70;99.90
23568;DHT22;11962;50.838;4.430;2023-06-22T06:00:43;21.70;99.90
23568;DHT22;11962;50.838;4.430;2023-06-22T06:03:10;21.80;99.90
23568;DHT22;11962;50.838;4.430;2023-06-22T06:05:36;21.90;99.90
23568;DHT22;11962;50.838;4.430;2023-06-22T06:08:05;21.90;99.90
23568;DHT22;11962;50.838;4.430;2023-06-22T06:10:31;22.00;99.90
23568;DHT22;11962;50.838;4.430;2023-06-22T06:12:57;22.10;99.90
23568;DHT22;11962;50.838;4.430;2023-06-22T06:15:23;22.10;99.90
23568;DHT22;11962;50.838;4.430;2023-06-22T06:17:50;22.20;99.90
23568;DHT22;11962;50.838;4.430;2023-06-22T06:20:20;22.30;99.90
23568;DHT22;11962;50.838;4.430;2023-06-22T06:22:46;22.40;99.90
23568;DHT22;11962;50.838;4.430;2023-06-22T06:25:12;22.50;99.90
23568;DHT22;11962;50.838;4.430;2023-06-22T06:27:42;22.70;99.90
23568;DHT22;11962;50.838;4.430;2023-06-22T06:30:12;22.90;99.90
23568;DHT22;11962;50.838;4.430;2023-06-22T06:32:38;23.10;99.90
23568;DHT22;11962;50.838;4.430;2023-06-22T06:35:08;23.30;99.90
23568;DHT22;11962;50.838;4.430;2023-06-22T06:37:36;23.40;99.90
23568;DHT22;11962;50.838;4.430;2023-06-22T06:40:04;23.60;99.90
23568;DHT22;11962;50.838;4.430;2023-06-22T06:42:40;23.60;99.90
23568;DHT22;11962;50.838;4.430;2023-06-22T06:45:11;23.70;99.90
23568;DHT22;11962;50.838;4.430;2023-06-22T06:47:37;23.90;99.90
23568;DHT22;11962;50.838;4.430;2023-06-22T06:50:05;24.10;99.90
23568;DHT22;11962;50.838;4.430;2023-06-22T06:52:31;24.30;99.90
23568;DHT22;11962;50.838;4.430;2023-06-22T06:54:56;24.30;99.90
23568;DHT22;11962;50.838;4.430;2023-06-22T06:57:22;24.30;99.90
23568;DHT22;11962;50.838;4.430;2023-06-22T06:59:48;24.30;99.90
23568;DHT22;11962;50.838;4.430;2023-06-22T07:02:15;24.30;99.90
23568;DHT22;11962;50.838;4.430;2023-06-22T07:04:41;24.30;99.90
23568;DHT22;11962;50.838;4.430;2023-06-22T07:07:07;24.40;99.90
23568;DHT22;11962;50.838;4.430;2023-06-22T07:09:33;24.50;99.90
23568;DHT22;11962;50.838;4.430;2023-06-22T07:11:58;24.60;99.90
23568;DHT22;11962;50.838;4.430;2023-06-22T07:14:24;24.60;99.90
23568;DHT22;11962;50.838;4.430;2023-06-22T07:16:50;24.60;99.90
23568;DHT22;11962;50.838;4.430;2023-06-22T07:19:16;24.50;99.90
23568;DHT22;11962;50.838;4.430;2023-06-22T07:21:41;24.60;99.90
23568;DHT22;11962;50.838;4.430;2023-06-22T07:24:07;24.80;99.90
23568;DHT22;11962;50.838;4.430;2023-06-22T07:26:33;25.10;99.90
23568;DHT22;11962;50.838;4.430;2023-06-22T07:28:59;25.50;99.90
23568;DHT22;11962;50.838;4.430;2023-06-22T07:31:26;25.90;99.90
23568;DHT22;11962;50.838;4.430;2023-06-22T07:33:52;26.10;99.90
23568;DHT22;11962;50.838;4.430;2023-06-22T07:36:18;26.30;99.90
23568;DHT22;11962;50.838;4.430;2023-06-22T07:38:44;26.20;99.90
23568;DHT22;11962;50.838;4.430;2023-06-22T07:41:10;26.00;99.90
23568;DHT22;11962;50.838;4.430;2023-06-22T07:43:35;25.80;99.90
23568;DHT22;11962;50.838;4.430;2023-06-22T07:46:05;25.60;99.90
23568;DHT22;11962;50.838;4.430;2023-06-22T07:48:31;25.30;99.90
23568;DHT22;11962;50.838;4.430;2023-06-22T07:50:57;25.00;99.90
23568;DHT22;11962;50.838;4.430;2023-06-22T07:53:23;24.90;99.90
23568;DHT22;11962;50.838;4.430;2023-06-22T07:55:49;24.80;99.90
23568;DHT22;11962;50.838;4.430;2023-06-22T07:58:15;24.70;99.90
23568;DHT22;11962;50.838;4.430;2023-06-22T08:00:44;24.50;99.90
23568;DHT22;11962;50.838;4.430;2023-06-22T08:03:10;24.40;99.90
23568;DHT22;11962;50.838;4.430;2023-06-22T08:05:36;24.30;99.90
23568;DHT22;11962;50.838;4.430;2023-06-22T08:08:01;24.30;99.90
23568;DHT22;11962;50.838;4.430;2023-06-22T08:10:27;24.20;99.90
23568;DHT22;11962;50.838;4.430;2023-06-22T08:12:53;24.10;99.90
23568;DHT22;11962;50.838;4.430;2023-06-22T08:15:19;23.90;99.90
23568;DHT22;11962;50.838;4.430;2023-06-22T08:17:45;23.80;99.90
23568;DHT22;11962;50.838;4.430;2023-06-22T08:20:11;23.70;99.90
23568;DHT22;11962;50.838;4.430;2023-06-22T08:22:38;23.60;99.90
23568;DHT22;11962;50.838;4.430;2023-06-22T08:25:05;23.60;99.90
23568;DHT22;11962;50.838;4.430;2023-06-22T08:27:31;23.50;99.90
23568;DHT22;11962;50.838;4.430;2023-06-22T08:29:58;23.50;99.90
23568;DHT22;11962;50.838;4.430;2023-06-22T08:32:28;23.50;99.90
23568;DHT22;11962;50.838;4.430;2023-06-22T08:34:57;23.50;99.90
23568;DHT22;11962;50.838;4.430;2023-06-22T08:37:23;23.40;99.90
23568;DHT22;11962;50.838;4.430;2023-06-22T08:40:00;23.40;99.90
23568;DHT22;11962;50.838;4.430;2023-06-22T08:42:27;23.40;99.90
23568;DHT22;11962;50.838;4.430;2023-06-22T08:44:52;23.40;99.90
23568;DHT22;11962;50.838;4.430;2023-06-22T08:47:19;23.40;99.90
23568;DHT22;11962;50.838;4.430;2023-06-22T08:49:45;23.40;99.90
23568;DHT22;11962;50.838;4.430;2023-06-22T08:52:11;23.40;99.90
23568;DHT22;11962;50.838;4.430;2023-06-22T08:54:37;23.40;99.90
23568;DHT22;11962;50.838;4.430;2023-06-22T08:57:03;23.50;99.90
23568;DHT22;11962;50.838;4.430;2023-06-22T08:59:28;23.60;99.90
23568;DHT22;11962;50.838;4.430;2023-06-22T09:01:54;23.60;99.90
23568;DHT22;11962;50.838;4.430;2023-06-22T09:04:20;23.60;99.90
23568;DHT22;11962;50.838;4.430;2023-06-22T09:06:48;23.70;99.90
23568;DHT22;11962;50.838;4.430;2023-06-22T09:09:16;23.70;99.90
23568;DHT22;11962;50.838;4.430;2023-06-22T09:11:42;23.70;99.90
23568;DHT22;11962;50.838;4.430;2023-06-22T09:14:08;23.70;99.90
23568;DHT22;11962;50.838;4.430;2023-06-22T09:16:34;23.70;99.90
23568;DHT22;11962;50.838;4.430;2023-06-22T09:19:00;23.70;99.90
23568;DHT22;11962;50.838;4.430;2023-06-22T09:21:26;23.70;99.90
23568;DHT22;11962;50.838;4.430;2023-06-22T09:23:52;23.70;99.90
23568;DHT22;11962;50.838;4.430;2023-06-22T09:26:18;23.70;99.90
23568;DHT22;11962;50.838;4.430;2023-06-22T09:28:44;23.60;99.90
23568;DHT22;11962;50.838;4.430;2023-06-22T09:31:10;23.50;99.90
23568;DHT22;11962;50.838;4.430;2023-06-22T09:33:36;23.40;99.90
23568;DHT22;11962;50.838;4.430;2023-06-22T09:36:05;23.40;99.90
23568;DHT22;11962;50.838;4.430;2023-06-22T09:38:37;23.20;99.90
23568;DHT22;11962;50.838;4.430;2023-06-22T09:41:04;22.90;99.90
23568;DHT22;11962;50.838;4.430;2023-06-22T09:43:31;22.60;99.90
23568;DHT22;11962;50.838;4.430;2023-06-22T09:45:58;22.30;99.90
23568;DHT22;11962;50.838;4.430;2023-06-22T09:48:23;22.00;99.90
23568;DHT22;11962;50.838;4.430;2023-06-22T09:50:49;21.70;99.90
23568;DHT22;11962;50.838;4.430;2023-06-22T09:53:15;21.40;99.90
23568;DHT22;11962;50.838;4.430;2023-06-22T09:55:41;21.20;99.90
23568;DHT22;11962;50.838;4.430;2023-06-22T09:58:06;21.00;99.90
23568;DHT22;11962;50.838;4.430;2023-06-22T10:00:32;20.80;99.90
23568;DHT22;11962;50.838;4.430;2023-06-22T10:02:58;20.70;99.90
23568;DHT22;11962;50.838;4.430;2023-06-22T10:05:24;20.60;99.90
23568;DHT22;11962;50.838;4.430;2023-06-22T10:07:50;20.60;99.90
23568;DHT22;11962;50.838;4.430;2023-06-22T10:10:16;20.60;99.90
23568;DHT22;11962;50.838;4.430;2023-06-22T10:12:46;20.50;99.90
23568;DHT22;11962;50.838;4.430;2023-06-22T10:15:13;20.50;99.90
23568;DHT22;11962;50.838;4.430;2023-06-22T10:17:39;20.40;99.90
23568;DHT22;11962;50.838;4.430;2023-06-22T10:20:06;20.40;99.90
23568;DHT22;11962;50.838;4.430;2023-06-22T10:22:40;20.40;99.90
23568;DHT22;11962;50.838;4.430;2023-06-22T10:25:06;20.40;99.90
23568;DHT22;11962;50.838;4.430;2023-06-22T10:27:32;20.40;99.90
23568;DHT22;11962;50.838;4.430;2023-06-22T10:29:58;20.50;99.90
23568;DHT22;11962;50.838;4.430;2023-06-22T10:32:24;20.50;99.90
23568;DHT22;11962;50.838;4.430;2023-06-22T10:34:49;20.50;99.90
23568;DHT22;11962;50.838;4.430;2023-06-22T10:37:15;20.50;99.90
23568;DHT22;11962;50.838;4.430;2023-06-22T10:39:41;20.40;99.90
23568;DHT22;11962;50.838;4.430;2023-06-22T10:42:07;20.40;99.90
23568;DHT22;11962;50.838;4.430;2023-06-22T10:44:33;20.40;99.90
23568;DHT22;11962;50.838;4.430;2023-06-22T10:46:59;20.40;99.90
23568;DHT22;11962;50.838;4.430;2023-06-22T10:49:24;20.50;99.90
23568;DHT22;11962;50.838;4.430;2023-06-22T10:51:50;20.50;99.90
23568;DHT22;11962;50.838;4.430;2023-06-22T10:54:16;20.70;99.90
23568;DHT22;11962;50.838;4.430;2023-06-22T10:56:43;20.80;99.90
23568;DHT22;11962;50.838;4.430;2023-06-22T10:59:09;20.90;99.90
23568;DHT22;11962;50.838;4.430;2023-06-22T11:01:35;21.00;99.90
23568;DHT22;11962;50.838;4.430;2023-06-22T11:04:02;21.10;99.90
23568;DHT22;11962;50.838;4.430;2023-06-22T11:06:28;21.10;99.90
23568;DHT22;11962;50.838;4.430;2023-06-22T11:08:54;21.20;99.90
23568;DHT22;11962;50.838;4.430;2023-06-22T11:11:20;21.20;99.90
23568;DHT22;11962;50.838;4.430;2023-06-22T11:13:45;21.40;99.90
23568;DHT22;11962;50.838;4.430;2023-06-22T11:16:11;21.50;99.90
23568;DHT22;11962;50.838;4.430;2023-06-22T11:18:37;21.60;99.90
23568;DHT22;11962;50.838;4.430;2023-06-22T11:21:03;21.70;99.90
23568;DHT22;11962;50.838;4.430;2023-06-22T11:23:28;21.80;99.90
23568;DHT22;11962;50.838;4.430;2023-06-22T11:25:55;21.90;99.90
23568;DHT22;11962;50.838;4.430;2023-06-22T11:28:20;21.90;99.90
23568;DHT22;11962;50.838;4.430;2023-06-22T11:30:46;22.00;99.90
23568;DHT22;11962;50.838;4.430;2023-06-22T11:33:12;22.00;99.90
23568;DHT22;11962;50.838;4.430;2023-06-22T11:35:38;22.00;99.90
23568;DHT22;11962;50.838;4.430;2023-06-22T11:38:03;22.00;99.90
23568;DHT22;11962;50.838;4.430;2023-06-22T11:40:30;22.00;99.90
23568;DHT22;11962;50.838;4.430;2023-06-22T11:42:56;21.90;99.90
23568;DHT22;11962;50.838;4.430;2023-06-22T11:45:22;21.90;99.90
23568;DHT22;11962;50.838;4.430;2023-06-22T11:47:48;21.80;99.90
23568;DHT22;11962;50.838;4.430;2023-06-22T11:50:14;21.80;99.90
23568;DHT22;11962;50.838;4.430;2023-06-22T11:52:39;21.80;99.90
23568;DHT22;11962;50.838;4.430;2023-06-22T11:55:06;21.80;99.90
23568;DHT22;11962;50.838;4.430;2023-06-22T11:57:39;21.80;99.90
23568;DHT22;11962;50.838;4.430;2023-06-22T12:00:17;21.80;99.90
23568;DHT22;11962;50.838;4.430;2023-06-22T12:02:44;21.80;99.90
23568;DHT22;11962;50.838;4.430;2023-06-22T12:05:10;21.80;99.90
23568;DHT22;11962;50.838;4.430;2023-06-22T12:07:36;21.80;99.90
23568;DHT22;11962;50.838;4.430;2023-06-22T12:10:03;21.90;99.90
23568;DHT22;11962;50.838;4.430;2023-06-22T12:12:29;21.90;99.90
23568;DHT22;11962;50.838;4.430;2023-06-22T12:14:55;21.90;99.90
23568;DHT22;11962;50.838;4.430;2023-06-22T12:17:21;21.90;99.90
23568;DHT22;11962;50.838;4.430;2023-06-22T12:19:46;21.90;99.90
23568;DHT22;11962;50.838;4.430;2023-06-22T12:22:12;21.70;99.90
23568;DHT22;11962;50.838;4.430;2023-06-22T12:24:38;21.70;99.90
23568;DHT22;11962;50.838;4.430;2023-06-22T12:27:04;21.60;99.90
23568;DHT22;11962;50.838;4.430;2023-06-22T12:29:30;21.50;99.90
23568;DHT22;11962;50.838;4.430;2023-06-22T12:31:55;21.40;99.90
23568;DHT22;11962;50.838;4.430;2023-06-22T12:34:21;21.40;99.90
23568;DHT22;11962;50.838;4.430;2023-06-22T12:36:47;21.40;99.90
23568;DHT22;11962;50.838;4.430;2023-06-22T12:39:14;21.30;99.90
23568;DHT22;11962;50.838;4.430;2023-06-22T12:41:39;21.30;99.90
23568;DHT22;11962;50.838;4.430;2023-06-22T12:44:05;21.30;99.90
23568;DHT22;11962;50.838;4.430;2023-06-22T12:46:31;21.20;99.90
23568;DHT22;11962;50.838;4.430;2023-06-22T12:49:03;21.10;99.90
23568;DHT22;11962;50.838;4.430;2023-06-22T12:51:30;21.10;99.90
23568;DHT22;11962;50.838;4.430;2023-06-22T12:53:56;21.10;99.90
23568;DHT22;11962;50.838;4.430;2023-06-22T12:56:22;21.00;99.90
23568;DHT22;11962;50.838;4.430;2023-06-22T12:58:47;21.00;99.90
23568;DHT22;11962;50.838;4.430;2023-06-22T13:01:13;21.00;99.90
23568;DHT22;11962;50.838;4.430;2023-06-22T13:03:39;21.00;99.90
23568;DHT22;11962;50.838;4.430;2023-06-22T13:06:05;21.00;99.90
23568;DHT22;11962;50.838;4.430;2023-06-22T13:08:30;20.90;99.90
23568;DHT22;11962;50.838;4.430;2023-06-22T13:10:56;20.90;99.90
23568;DHT22;11962;50.838;4.430;2023-06-22T13:13:23;20.90;99.90
23568;DHT22;11962;50.838;4.430;2023-06-22T13:15:50;20.90;99.90
23568;DHT22;11962;50.838;4.430;2023-06-22T13:18:16;20.90;99.90
23568;DHT22;11962;50.838;4.430;2023-06-22T13:20:42;20.90;99.90
23568;DHT22;11962;50.838;4.430;2023-06-22T13:23:07;20.90;99.90
23568;DHT22;11962;50.838;4.430;2023-06-22T13:25:33;20.90;99.90
23568;DHT22;11962;50.838;4.430;2023-06-22T13:27:59;20.90;99.90
23568;DHT22;11962;50.838;4.430;2023-06-22T13:30:24;20.90;99.90
23568;DHT22;11962;50.838;4.430;2023-06-22T13:32:50;20.90;99.90
23568;DHT22;11962;50.838;4.430;2023-06-22T13:35:16;21.00;99.90
23568;DHT22;11962;50.838;4.430;2023-06-22T13:37:41;21.10;99.90
23568;DHT22;11962;50.838;4.430;2023-06-22T13:40:08;21.10;99.90
23568;DHT22;11962;50.838;4.430;2023-06-22T13:42:33;21.10;99.90
23568;DHT22;11962;50.838;4.430;2023-06-22T13:44:59;21.20;99.90
23568;DHT22;11962;50.838;4.430;2023-06-22T13:47:25;21.20;99.90
23568;DHT22;11962;50.838;4.430;2023-06-22T13:49:51;21.20;99.90
23568;DHT22;11962;50.838;4.430;2023-06-22T13:52:16;21.10;99.90
23568;DHT22;11962;50.838;4.430;2023-06-22T13:54:42;21.00;99.90
23568;DHT22;11962;50.838;4.430;2023-06-22T13:57:08;21.10;99.90
23568;DHT22;11962;50.838;4.430;2023-06-22T13:59:34;21.00;99.90
23568;DHT22;11962;50.838;4.430;2023-06-22T14:01:59;20.90;99.90
23568;DHT22;11962;50.838;4.430;2023-06-22T14:04:25;20.80;99.90
23568;DHT22;11962;50.838;4.430;2023-06-22T14:06:51;20.70;99.90
23568;DHT22;11962;50.838;4.430;2023-06-22T14:09:17;20.70;99.90
23568;DHT22;11962;50.838;4.430;2023-06-22T14:11:42;20.70;99.90
23568;DHT22;11962;50.838;4.430;2023-06-22T14:14:08;20.70;99.90
23568;DHT22;11962;50.838;4.430;2023-06-22T14:16:34;20.60;99.90
23568;DHT22;11962;50.838;4.430;2023-06-22T14:19:00;20.60;99.90
23568;DHT22;11962;50.838;4.430;2023-06-22T14:21:26;20.60;99.90
23568;DHT22;11962;50.838;4.430;2023-06-22T14:23:51;20.70;99.90
23568;DHT22;11962;50.838;4.430;2023-06-22T14:26:17;20.70;99.90
23568;DHT22;11962;50.838;4.430;2023-06-22T14:28:47;20.80;99.90
23568;DHT22;11962;50.838;4.430;2023-06-22T14:31:16;20.80;99.90
23568;DHT22;11962;50.838;4.430;2023-06-22T14:33:46;20.90;99.90
23568;DHT22;11962;50.838;4.430;2023-06-22T14:36:12;20.90;99.90
23568;DHT22;11962;50.838;4.430;2023-06-22T14:38:38;20.90;99.90
23568;DHT22;11962;50.838;4.430;2023-06-22T14:41:04;20.90;99.90
23568;DHT22;11962;50.838;4.430;2023-06-22T14:43:30;20.80;99.90
23568;DHT22;11962;50.838;4.430;2023-06-22T14:45:56;20.80;99.90
23568;DHT22;11962;50.838;4.430;2023-06-22T14:48:21;20.70;99.90
23568;DHT22;11962;50.838;4.430;2023-06-22T14:50:47;20.70;99.90
23568;DHT22;11962;50.838;4.430;2023-06-22T14:53:13;20.60;99.90
23568;DHT22;11962;50.838;4.430;2023-06-22T14:55:40;20.60;99.90
23568;DHT22;11962;50.838;4.430;2023-06-22T14:58:06;20.60;99.90
23568;DHT22;11962;50.838;4.430;2023-06-22T15:00:31;20.70;99.90
23568;DHT22;11962;50.838;4.430;2023-06-22T15:02:58;20.70;99.90
23568;DHT22;11962;50.838;4.430;2023-06-22T15:05:25;20.80;99.90
23568;DHT22;11962;50.838;4.430;2023-06-22T15:07:51;20.90;99.90
23568;DHT22;11962;50.838;4.430;2023-06-22T15:10:17;21.00;99.90
23568;DHT22;11962;50.838;4.430;2023-06-22T15:12:43;21.10;99.90
23568;DHT22;11962;50.838;4.430;2023-06-22T15:15:09;21.20;99.90
23568;DHT22;11962;50.838;4.430;2023-06-22T15:17:35;21.20;99.90
23568;DHT22;11962;50.838;4.430;2023-06-22T15:20:02;21.20;99.90
23568;DHT22;11962;50.838;4.430;2023-06-22T15:22:30;21.20;99.90
23568;DHT22;11962;50.838;4.430;2023-06-22T15:24:57;21.10;99.90
23568;DHT22;11962;50.838;4.430;2023-06-22T15:27:24;21.10;99.90